sensor_id;sensor_type;location;lat;lon;timestamp;pressure;altitude;pressure_sealevel;temperature;humidity
10060;BME280;5069;49.306;8.636;2023-07-13T00:00:44;100402.13;;;22.38;48.47
10060;BME280;5069;49.306;8.636;2023-07-13T00:03:45;100407.09;;;22.43;48.52
10060;BME280;5069;49.306;8.636;2023-07-13T00:06:47;100410.25;;;22.48;48.57
10060;BME280;5069;49.306;8.636;2023-07-13T00:09:48;100421.91;;;22.37;48.48
10060;BME280;5069;49.306;8.636;2023-07-13T00:12:50;100417.16;;;22.30;48.88
10060;BME280;5069;49.306;8.636;2023-07-13T00:15:53;100416.28;;;22.29;49.21
10060;BME280;5069;49.306;8.636;2023-07-13T00:18:55;100416.28;;;22.29;49.81
10060;BME280;5069;49.306;8.636;2023-07-13T00:21:56;100420.91;;;22.27;49.79
10060;BME280;5069;49.306;8.636;2023-07-13T00:24:58;100412.38;;;22.22;50.04
10060;BME280;5069;49.306;8.636;2023-07-13T00:27:59;100409.22;;;22.17;49.96
10060;BME280;5069;49.306;8.636;2023-07-13T00:31:01;100407.03;;;22.11;50.35
10060;BME280;5069;49.306;8.636;2023-07-13T00:34:03;100408.53;;;22.15;50.39
10060;BME280;5069;49.306;8.636;2023-07-13T00:37:06;100408.38;;;22.16;50.35
10060;BME280;5069;49.306;8.636;2023-07-13T00:40:10;100410.59;;;22.11;50.77
10060;BME280;5069;49.306;8.636;2023-07-13T00:43:15;100406.81;;;22.14;51.29
10060;BME280;5069;49.306;8.636;2023-07-13T00:46:27;100416.81;;;22.12;51.20
10060;BME280;5069;49.306;8.636;2023-07-13T00:49:30;100416.81;;;22.12;51.25
10060;BME280;5069;49.306;8.636;2023-07-13T00:52:35;100417.78;;;22.00;51.89
10060;BME280;5069;49.306;8.636;2023-07-13T00:55:38;100423.63;;;21.94;52.11
10060;BME280;5069;49.306;8.636;2023-07-13T00:58:40;100419.22;;;21.70;53.27
10060;BME280;5069;49.306;8.636;2023-07-13T01:01:41;100427.03;;;21.40;54.34
10060;BME280;5069;49.306;8.636;2023-07-13T01:04:43;100424.31;;;21.18;55.34
10060;BME280;5069;49.306;8.636;2023-07-13T01:07:46;100425.31;;;21.04;55.72
10060;BME280;5069;49.306;8.636;2023-07-13T01:10:56;100423.69;;;20.90;56.55
10060;BME280;5069;49.306;8.636;2023-07-13T01:13:58;100429.53;;;20.84;56.46
10060;BME280;5069;49.306;8.636;2023-07-13T01:16:59;100426.13;;;20.93;57.35
10060;BME280;5069;49.306;8.636;2023-07-13T01:20:02;100428.72;;;20.95;57.73
10060;BME280;5069;49.306;8.636;2023-07-13T01:23:07;100435.53;;;20.99;56.75
10060;BME280;5069;49.306;8.636;2023-07-13T01:26:10;100433.88;;;20.85;57.22
10060;BME280;5069;49.306;8.636;2023-07-13T01:29:12;100429.25;;;20.76;57.92
10060;BME280;5069;49.306;8.636;2023-07-13T01:32:16;100434.69;;;20.75;58.49
10060;BME280;5069;49.306;8.636;2023-07-13T01:35:23;100434.16;;;20.58;59.96
10060;BME280;5069;49.306;8.636;2023-07-13T01:38:26;100430.28;;;20.39;61.45
10060;BME280;5069;49.306;8.636;2023-07-13T01:41:28;100437.78;;;20.21;62.34
10060;BME280;5069;49.306;8.636;2023-07-13T01:44:30;100440.25;;;20.11;62.65
10060;BME280;5069;49.306;8.636;2023-07-13T01:47:31;100443.31;;;20.31;61.56
10060;BME280;5069;49.306;8.636;2023-07-13T01:50:34;100434.53;;;20.29;63.00
10060;BME280;5069;49.306;8.636;2023-07-13T01:53:35;100443.78;;;20.25;63.95
10060;BME280;5069;49.306;8.636;2023-07-13T01:56:37;100452.16;;;20.07;64.80
10060;BME280;5069;49.306;8.636;2023-07-13T01:59:40;100448.00;;;20.16;64.24
10060;BME280;5069;49.306;8.636;2023-07-13T02:02:42;100442.09;;;20.11;65.40
10060;BME280;5069;49.306;8.636;2023-07-13T02:05:46;100445.78;;;19.97;66.31
10060;BME280;5069;49.306;8.636;2023-07-13T02:08:48;100439.56;;;19.97;66.13
10060;BME280;5069;49.306;8.636;2023-07-13T02:11:50;100448.97;;;20.02;66.66
10060;BME280;5069;49.306;8.636;2023-07-13T02:14:52;100440.84;;;19.91;67.20
10060;BME280;5069;49.306;8.636;2023-07-13T02:17:53;100435.09;;;19.85;67.56
10060;BME280;5069;49.306;8.636;2023-07-13T02:20:55;100441.50;;;19.82;67.95
10060;BME280;5069;49.306;8.636;2023-07-13T02:23:56;100442.16;;;19.86;68.27
10060;BME280;5069;49.306;8.636;2023-07-13T02:26:59;100459.25;;;19.83;67.74
10060;BME280;5069;49.306;8.636;2023-07-13T02:30:00;100448.97;;;19.90;67.98
10060;BME280;5069;49.306;8.636;2023-07-13T02:33:02;100450.06;;;19.87;67.66
10060;BME280;5069;49.306;8.636;2023-07-13T02:36:04;100452.19;;;19.82;67.97
10060;BME280;5069;49.306;8.636;2023-07-13T02:39:07;100457.25;;;19.74;68.14
10060;BME280;5069;49.306;8.636;2023-07-13T02:42:10;100454.56;;;19.61;68.85
10060;BME280;5069;49.306;8.636;2023-07-13T02:45:11;100450.06;;;19.49;68.26
10060;BME280;5069;49.306;8.636;2023-07-13T02:48:15;100457.13;;;19.50;68.10
10060;BME280;5069;49.306;8.636;2023-07-13T02:51:16;100459.72;;;19.52;68.05
10060;BME280;5069;49.306;8.636;2023-07-13T02:54:17;100457.50;;;19.31;69.01
10060;BME280;5069;49.306;8.636;2023-07-13T02:57:19;100458.03;;;19.11;69.39
10060;BME280;5069;49.306;8.636;2023-07-13T03:00:21;100453.91;;;18.93;70.89
10060;BME280;5069;49.306;8.636;2023-07-13T03:03:22;100454.66;;;18.82;71.42
10060;BME280;5069;49.306;8.636;2023-07-13T03:06:24;100455.72;;;18.92;70.65
10060;BME280;5069;49.306;8.636;2023-07-13T03:09:27;100459.81;;;18.98;70.62
10060;BME280;5069;49.306;8.636;2023-07-13T03:12:30;100459.63;;;19.01;70.23
10060;BME280;5069;49.306;8.636;2023-07-13T03:15:32;100455.94;;;18.89;70.24
10060;BME280;5069;49.306;8.636;2023-07-13T03:18:36;100459.03;;;18.83;70.97
10060;BME280;5069;49.306;8.636;2023-07-13T03:21:40;100469.91;;;18.80;71.06
10060;BME280;5069;49.306;8.636;2023-07-13T03:24:43;100459.75;;;18.73;70.73
10060;BME280;5069;49.306;8.636;2023-07-13T03:27:46;100459.94;;;18.70;71.55
10060;BME280;5069;49.306;8.636;2023-07-13T03:30:47;100462.44;;;18.58;72.32
10060;BME280;5069;49.306;8.636;2023-07-13T03:33:49;100464.75;;;18.50;73.04
10060;BME280;5069;49.306;8.636;2023-07-13T03:36:54;100463.31;;;18.59;71.16
10060;BME280;5069;49.306;8.636;2023-07-13T03:39:56;100465.63;;;18.51;69.95
10060;BME280;5069;49.306;8.636;2023-07-13T03:42:57;100473.19;;;18.30;71.06
10060;BME280;5069;49.306;8.636;2023-07-13T03:45:59;100471.28;;;18.32;70.16
10060;BME280;5069;49.306;8.636;2023-07-13T03:49:00;100479.00;;;18.23;69.79
10060;BME280;5069;49.306;8.636;2023-07-13T03:52:02;100475.69;;;18.19;69.79
10060;BME280;5069;49.306;8.636;2023-07-13T03:55:04;100478.03;;;18.24;69.76
10060;BME280;5069;49.306;8.636;2023-07-13T03:58:25;100470.41;;;18.32;68.43
10060;BME280;5069;49.306;8.636;2023-07-13T04:01:30;100483.00;;;18.30;68.87
10060;BME280;5069;49.306;8.636;2023-07-13T04:04:32;100474.91;;;18.31;69.38
10060;BME280;5069;49.306;8.636;2023-07-13T04:07:34;100480.50;;;18.41;69.69
10060;BME280;5069;49.306;8.636;2023-07-13T04:10:35;100480.56;;;18.53;68.13
10060;BME280;5069;49.306;8.636;2023-07-13T04:13:37;100479.34;;;18.59;67.62
10060;BME280;5069;49.306;8.636;2023-07-13T04:16:38;100487.44;;;18.57;67.77
10060;BME280;5069;49.306;8.636;2023-07-13T04:19:40;100488.28;;;18.58;68.21
10060;BME280;5069;49.306;8.636;2023-07-13T04:22:42;100485.53;;;18.60;68.34
10060;BME280;5069;49.306;8.636;2023-07-13T04:25:47;100495.16;;;18.62;68.29
10060;BME280;5069;49.306;8.636;2023-07-13T04:28:51;100491.34;;;18.66;66.87
10060;BME280;5069;49.306;8.636;2023-07-13T04:31:53;100500.34;;;18.78;67.09
10060;BME280;5069;49.306;8.636;2023-07-13T04:34:54;100503.47;;;18.84;69.47
10060;BME280;5069;49.306;8.636;2023-07-13T04:37:57;100501.22;;;18.78;69.28
10060;BME280;5069;49.306;8.636;2023-07-13T04:41:01;100511.84;;;18.66;69.42
10060;BME280;5069;49.306;8.636;2023-07-13T04:44:03;100510.66;;;18.70;69.31
10060;BME280;5069;49.306;8.636;2023-07-13T04:47:04;100506.28;;;18.69;69.08
10060;BME280;5069;49.306;8.636;2023-07-13T04:50:07;100511.63;;;18.69;68.00
10060;BME280;5069;49.306;8.636;2023-07-13T04:53:09;100512.53;;;18.82;67.35
10060;BME280;5069;49.306;8.636;2023-07-13T04:56:11;100511.13;;;19.03;66.44
10060;BME280;5069;49.306;8.636;2023-07-13T04:59:13;100517.16;;;19.19;65.77
10060;BME280;5069;49.306;8.636;2023-07-13T05:02:15;100515.44;;;19.18;66.47
10060;BME280;5069;49.306;8.636;2023-07-13T05:05:17;100514.78;;;19.15;66.54
10060;BME280;5069;49.306;8.636;2023-07-13T05:08:18;100516.31;;;19.31;66.68
10060;BME280;5069;49.306;8.636;2023-07-13T05:11:20;100523.88;;;19.52;65.80
10060;BME280;5069;49.306;8.636;2023-07-13T05:14:21;100515.56;;;19.69;65.82
10060;BME280;5069;49.306;8.636;2023-07-13T05:17:23;100526.97;;;19.71;68.61
10060;BME280;5069;49.306;8.636;2023-07-13T05:20:24;100525.50;;;19.67;69.74
10060;BME280;5069;49.306;8.636;2023-07-13T05:23:26;100535.56;;;19.76;71.07
10060;BME280;5069;49.306;8.636;2023-07-13T05:26:28;100530.72;;;19.94;71.52
10060;BME280;5069;49.306;8.636;2023-07-13T05:29:29;100535.88;;;19.97;70.72
10060;BME280;5069;49.306;8.636;2023-07-13T05:32:31;100535.66;;;20.00;70.80
10060;BME280;5069;49.306;8.636;2023-07-13T05:35:33;100531.59;;;20.19;68.73
10060;BME280;5069;49.306;8.636;2023-07-13T05:38:34;100536.53;;;20.38;68.35
10060;BME280;5069;49.306;8.636;2023-07-13T05:41:36;100534.97;;;20.47;69.23
10060;BME280;5069;49.306;8.636;2023-07-13T05:44:37;100540.84;;;20.52;64.06
10060;BME280;5069;49.306;8.636;2023-07-13T05:47:39;100539.91;;;20.40;63.21
10060;BME280;5069;49.306;8.636;2023-07-13T05:50:40;100543.97;;;20.46;62.93
10060;BME280;5069;49.306;8.636;2023-07-13T05:53:42;100551.00;;;20.72;62.47
10060;BME280;5069;49.306;8.636;2023-07-13T05:56:43;100556.13;;;20.75;61.71
10060;BME280;5069;49.306;8.636;2023-07-13T05:59:45;100563.25;;;20.87;61.82
10060;BME280;5069;49.306;8.636;2023-07-13T06:02:46;100566.56;;;20.91;59.88
10060;BME280;5069;49.306;8.636;2023-07-13T06:05:48;100567.47;;;20.79;58.14
10060;BME280;5069;49.306;8.636;2023-07-13T06:08:50;100577.03;;;21.07;58.83
10060;BME280;5069;49.306;8.636;2023-07-13T06:11:51;100578.09;;;21.04;59.17
10060;BME280;5069;49.306;8.636;2023-07-13T06:14:53;100579.34;;;21.11;59.09
10060;BME280;5069;49.306;8.636;2023-07-13T06:17:54;100581.31;;;21.33;58.48
10060;BME280;5069;49.306;8.636;2023-07-13T06:20:55;100580.66;;;21.18;56.97
10060;BME280;5069;49.306;8.636;2023-07-13T06:23:57;100587.09;;;21.16;57.22
10060;BME280;5069;49.306;8.636;2023-07-13T06:26:59;100587.75;;;21.07;57.66
10060;BME280;5069;49.306;8.636;2023-07-13T06:30:00;100601.25;;;21.18;57.81
10060;BME280;5069;49.306;8.636;2023-07-13T06:33:02;100607.38;;;21.31;55.76
10060;BME280;5069;49.306;8.636;2023-07-13T06:36:04;100598.66;;;21.16;54.74
10060;BME280;5069;49.306;8.636;2023-07-13T06:39:07;100601.63;;;21.24;55.34
10060;BME280;5069;49.306;8.636;2023-07-13T06:42:09;100612.31;;;21.48;55.95
10060;BME280;5069;49.306;8.636;2023-07-13T06:45:12;100611.22;;;21.74;54.05
10060;BME280;5069;49.306;8.636;2023-07-13T06:48:18;100617.16;;;21.67;54.05
10060;BME280;5069;49.306;8.636;2023-07-13T06:51:19;100619.84;;;21.67;54.04
10060;BME280;5069;49.306;8.636;2023-07-13T06:54:21;100621.25;;;21.83;54.13
10060;BME280;5069;49.306;8.636;2023-07-13T06:57:22;100621.72;;;21.77;52.15
10060;BME280;5069;49.306;8.636;2023-07-13T07:00:24;100624.63;;;21.03;53.79
10060;BME280;5069;49.306;8.636;2023-07-13T07:03:25;100621.47;;;21.22;54.98
10060;BME280;5069;49.306;8.636;2023-07-13T07:06:27;100625.09;;;21.68;53.85
10060;BME280;5069;49.306;8.636;2023-07-13T07:09:29;100629.06;;;21.87;52.25
10060;BME280;5069;49.306;8.636;2023-07-13T07:12:32;100621.22;;;22.07;51.89
10060;BME280;5069;49.306;8.636;2023-07-13T07:15:34;100633.31;;;22.13;50.79
10060;BME280;5069;49.306;8.636;2023-07-13T07:18:36;100628.28;;;21.97;50.66
10060;BME280;5069;49.306;8.636;2023-07-13T07:21:37;100633.13;;;21.92;49.64
10060;BME280;5069;49.306;8.636;2023-07-13T07:24:39;100634.94;;;21.92;49.84
10060;BME280;5069;49.306;8.636;2023-07-13T07:27:40;100636.97;;;21.88;49.59
10060;BME280;5069;49.306;8.636;2023-07-13T07:30:46;100636.38;;;21.84;49.70
10060;BME280;5069;49.306;8.636;2023-07-13T07:33:50;100619.81;;;21.91;50.29
10060;BME280;5069;49.306;8.636;2023-07-13T07:36:53;100630.72;;;21.76;51.15
10060;BME280;5069;49.306;8.636;2023-07-13T07:39:58;100628.91;;;22.23;50.28
10060;BME280;5069;49.306;8.636;2023-07-13T07:43:03;100633.94;;;22.39;49.27
10060;BME280;5069;49.306;8.636;2023-07-13T07:46:05;100628.44;;;22.51;48.46
10060;BME280;5069;49.306;8.636;2023-07-13T07:49:06;100629.19;;;22.53;47.56
10060;BME280;5069;49.306;8.636;2023-07-13T07:52:08;100624.91;;;22.84;47.85
10060;BME280;5069;49.306;8.636;2023-07-13T07:55:09;100635.03;;;23.03;46.74
10060;BME280;5069;49.306;8.636;2023-07-13T07:58:16;100631.41;;;22.82;45.25
10060;BME280;5069;49.306;8.636;2023-07-13T08:01:37;100628.66;;;23.15;44.97
10060;BME280;5069;49.306;8.636;2023-07-13T08:04:41;100627.88;;;23.46;45.01
10060;BME280;5069;49.306;8.636;2023-07-13T08:08:03;100632.97;;;23.81;44.42
10060;BME280;5069;49.306;8.636;2023-07-13T08:11:06;100626.69;;;23.92;43.75
10060;BME280;5069;49.306;8.636;2023-07-13T08:14:11;100626.19;;;23.87;43.30
10060;BME280;5069;49.306;8.636;2023-07-13T08:17:13;100639.00;;;24.15;42.57
10060;BME280;5069;49.306;8.636;2023-07-13T08:20:15;100634.31;;;24.28;42.43
10060;BME280;5069;49.306;8.636;2023-07-13T08:23:17;100628.19;;;24.26;41.80
10060;BME280;5069;49.306;8.636;2023-07-13T08:26:18;100634.22;;;23.98;41.96
10060;BME280;5069;49.306;8.636;2023-07-13T08:29:20;100632.53;;;23.97;42.21
10060;BME280;5069;49.306;8.636;2023-07-13T08:32:22;100629.91;;;23.86;42.61
10060;BME280;5069;49.306;8.636;2023-07-13T08:35:24;100634.50;;;23.74;42.98
10060;BME280;5069;49.306;8.636;2023-07-13T08:38:27;100627.97;;;23.77;42.49
10060;BME280;5069;49.306;8.636;2023-07-13T08:41:28;100628.44;;;23.82;42.31
10060;BME280;5069;49.306;8.636;2023-07-13T08:45:40;100624.59;;;23.64;41.98
10060;BME280;5069;49.306;8.636;2023-07-13T08:54:38;100626.94;;;24.61;41.20
10060;BME280;5069;49.306;8.636;2023-07-13T08:57:42;100624.75;;;24.85;39.69
10060;BME280;5069;49.306;8.636;2023-07-13T09:01:14;100634.66;;;24.75;39.53
10060;BME280;5069;49.306;8.636;2023-07-13T09:04:21;100627.19;;;24.07;40.94
10060;BME280;5069;49.306;8.636;2023-07-13T09:10:41;100629.00;;;24.78;39.94
10060;BME280;5069;49.306;8.636;2023-07-13T09:17:14;100616.09;;;24.42;41.32
10060;BME280;5069;49.306;8.636;2023-07-13T09:23:38;100620.81;;;24.89;40.62
10060;BME280;5069;49.306;8.636;2023-07-13T09:26:40;100627.56;;;25.04;40.61
10060;BME280;5069;49.306;8.636;2023-07-13T09:29:47;100624.13;;;24.72;40.79
10060;BME280;5069;49.306;8.636;2023-07-13T09:32:53;100626.34;;;24.48;41.24
10060;BME280;5069;49.306;8.636;2023-07-13T09:35:55;100626.81;;;24.93;40.56
10060;BME280;5069;49.306;8.636;2023-07-13T09:42:18;100613.53;;;25.30;39.17
10060;BME280;5069;49.306;8.636;2023-07-13T09:45:28;100625.22;;;25.59;38.91
10060;BME280;5069;49.306;8.636;2023-07-13T09:48:35;100633.72;;;25.45;38.04
10060;BME280;5069;49.306;8.636;2023-07-13T09:51:39;100624.59;;;25.46;38.83
10060;BME280;5069;49.306;8.636;2023-07-13T09:54:48;100620.41;;;25.72;39.12
10060;BME280;5069;49.306;8.636;2023-07-13T09:57:50;100615.84;;;25.82;38.22
10060;BME280;5069;49.306;8.636;2023-07-13T10:00:55;100616.69;;;26.02;37.08
10060;BME280;5069;49.306;8.636;2023-07-13T10:03:58;100618.63;;;26.10;36.91
10060;BME280;5069;49.306;8.636;2023-07-13T10:07:12;100615.00;;;25.91;38.05
10060;BME280;5069;49.306;8.636;2023-07-13T10:10:30;100614.69;;;25.75;37.73
10060;BME280;5069;49.306;8.636;2023-07-13T10:13:37;100617.84;;;25.61;38.60
10060;BME280;5069;49.306;8.636;2023-07-13T10:16:43;100612.88;;;25.66;38.65
10060;BME280;5069;49.306;8.636;2023-07-13T10:19:47;100606.16;;;25.51;38.84
10060;BME280;5069;49.306;8.636;2023-07-13T10:22:54;100616.38;;;25.47;38.79
10060;BME280;5069;49.306;8.636;2023-07-13T10:25:56;100614.28;;;25.51;39.04
10060;BME280;5069;49.306;8.636;2023-07-13T10:29:04;100614.66;;;25.46;38.59
10060;BME280;5069;49.306;8.636;2023-07-13T10:32:12;100604.75;;;25.28;39.04
10060;BME280;5069;49.306;8.636;2023-07-13T10:35:16;100605.31;;;25.89;38.37
10060;BME280;5069;49.306;8.636;2023-07-13T10:38:22;100609.06;;;26.35;36.34
10060;BME280;5069;49.306;8.636;2023-07-13T10:41:26;100594.31;;;26.19;36.30
10060;BME280;5069;49.306;8.636;2023-07-13T10:44:30;100588.59;;;26.32;34.99
10060;BME280;5069;49.306;8.636;2023-07-13T10:47:32;100607.03;;;26.46;34.54
10060;BME280;5069;49.306;8.636;2023-07-13T10:50:35;100602.25;;;26.67;34.86
10060;BME280;5069;49.306;8.636;2023-07-13T10:53:39;100600.03;;;26.90;34.54
10060;BME280;5069;49.306;8.636;2023-07-13T10:56:45;100605.66;;;26.69;34.07
10060;BME280;5069;49.306;8.636;2023-07-13T11:03:13;100597.53;;;26.42;34.34
10060;BME280;5069;49.306;8.636;2023-07-13T11:06:39;100608.34;;;26.42;34.78
10060;BME280;5069;49.306;8.636;2023-07-13T11:09:50;100584.16;;;26.41;35.08
10060;BME280;5069;49.306;8.636;2023-07-13T11:12:53;100598.75;;;26.85;34.58
10060;BME280;5069;49.306;8.636;2023-07-13T11:15:55;100593.00;;;26.97;33.60
10060;BME280;5069;49.306;8.636;2023-07-13T11:28:25;100571.16;;;27.44;32.67
10060;BME280;5069;49.306;8.636;2023-07-13T11:31:32;100572.31;;;27.41;33.12
10060;BME280;5069;49.306;8.636;2023-07-13T11:34:37;100569.03;;;27.02;33.30
10060;BME280;5069;49.306;8.636;2023-07-13T11:37:39;100573.63;;;27.20;33.73
10060;BME280;5069;49.306;8.636;2023-07-13T11:40:44;100585.34;;;26.93;33.01
10060;BME280;5069;49.306;8.636;2023-07-13T11:43:50;100578.63;;;26.69;34.14
10060;BME280;5069;49.306;8.636;2023-07-13T11:46:54;100584.50;;;26.55;34.16
10060;BME280;5069;49.306;8.636;2023-07-13T11:49:56;100584.38;;;26.57;33.63
10060;BME280;5069;49.306;8.636;2023-07-13T11:52:58;100589.47;;;26.23;33.81
10060;BME280;5069;49.306;8.636;2023-07-13T11:56:01;100580.94;;;26.64;33.62
10060;BME280;5069;49.306;8.636;2023-07-13T11:59:07;100563.88;;;27.09;33.11
10060;BME280;5069;49.306;8.636;2023-07-13T12:02:19;100568.06;;;27.21;32.85
10060;BME280;5069;49.306;8.636;2023-07-13T12:05:26;100587.91;;;26.85;32.78
10060;BME280;5069;49.306;8.636;2023-07-13T12:08:29;100582.50;;;26.85;32.82
10060;BME280;5069;49.306;8.636;2023-07-13T12:11:35;100576.84;;;26.78;32.64
10060;BME280;5069;49.306;8.636;2023-07-13T12:14:42;100567.00;;;26.87;32.47
10060;BME280;5069;49.306;8.636;2023-07-13T12:17:43;100564.78;;;27.00;32.70
10060;BME280;5069;49.306;8.636;2023-07-13T12:20:46;100564.84;;;26.90;32.83
10060;BME280;5069;49.306;8.636;2023-07-13T12:23:49;100575.56;;;27.27;32.42
10060;BME280;5069;49.306;8.636;2023-07-13T12:26:59;100575.75;;;27.61;32.00
10060;BME280;5069;49.306;8.636;2023-07-13T12:33:39;100571.44;;;27.23;32.25
10060;BME280;5069;49.306;8.636;2023-07-13T12:36:53;100579.13;;;27.28;32.47
10060;BME280;5069;49.306;8.636;2023-07-13T12:39:56;100581.22;;;27.16;32.72
10060;BME280;5069;49.306;8.636;2023-07-13T12:42:58;100574.50;;;27.56;31.79
10060;BME280;5069;49.306;8.636;2023-07-13T12:46:21;100579.47;;;27.86;30.91
10060;BME280;5069;49.306;8.636;2023-07-13T12:49:28;100569.22;;;28.15;30.77
10060;BME280;5069;49.306;8.636;2023-07-13T12:52:33;100583.38;;;28.09;31.19
10060;BME280;5069;49.306;8.636;2023-07-13T12:55:47;100581.00;;;28.32;30.31
10060;BME280;5069;49.306;8.636;2023-07-13T12:58:57;100575.69;;;27.97;30.34
10060;BME280;5069;49.306;8.636;2023-07-13T13:02:00;100574.03;;;27.60;30.63
10060;BME280;5069;49.306;8.636;2023-07-13T13:05:02;100577.97;;;27.66;31.21
10060;BME280;5069;49.306;8.636;2023-07-13T13:08:10;100592.97;;;27.78;30.85
10060;BME280;5069;49.306;8.636;2023-07-13T13:11:12;100590.78;;;27.46;31.47
10060;BME280;5069;49.306;8.636;2023-07-13T13:14:17;100586.66;;;27.95;30.76
10060;BME280;5069;49.306;8.636;2023-07-13T13:17:21;100585.72;;;27.61;30.61
10060;BME280;5069;49.306;8.636;2023-07-13T13:20:25;100590.19;;;27.70;30.86
10060;BME280;5069;49.306;8.636;2023-07-13T13:23:29;100596.56;;;27.61;30.47
10060;BME280;5069;49.306;8.636;2023-07-13T13:26:31;100595.28;;;27.37;31.05
10060;BME280;5069;49.306;8.636;2023-07-13T13:29:36;100591.19;;;27.33;31.23
10060;BME280;5069;49.306;8.636;2023-07-13T13:32:40;100594.59;;;27.35;31.26
10060;BME280;5069;49.306;8.636;2023-07-13T13:35:42;100605.38;;;27.00;31.52
10060;BME280;5069;49.306;8.636;2023-07-13T13:38:44;100593.25;;;27.04;31.68
10060;BME280;5069;49.306;8.636;2023-07-13T13:41:47;100598.13;;;27.18;31.60
10060;BME280;5069;49.306;8.636;2023-07-13T13:44:48;100594.72;;;26.98;31.75
10060;BME280;5069;49.306;8.636;2023-07-13T13:47:50;100598.09;;;27.00;31.67
10060;BME280;5069;49.306;8.636;2023-07-13T13:50:51;100585.38;;;27.10;31.40
10060;BME280;5069;49.306;8.636;2023-07-13T13:53:53;100580.66;;;27.30;30.88
10060;BME280;5069;49.306;8.636;2023-07-13T13:56:55;100583.84;;;27.43;31.22
10060;BME280;5069;49.306;8.636;2023-07-13T13:59:57;100581.69;;;27.65;30.26
10060;BME280;5069;49.306;8.636;2023-07-13T14:02:58;100592.38;;;27.66;29.80
10060;BME280;5069;49.306;8.636;2023-07-13T14:06:01;100593.47;;;27.56;29.92
10060;BME280;5069;49.306;8.636;2023-07-13T14:09:02;100593.09;;;27.50;30.58
10060;BME280;5069;49.306;8.636;2023-07-13T14:12:04;100594.44;;;27.37;30.95
10060;BME280;5069;49.306;8.636;2023-07-13T14:15:23;100591.22;;;27.51;31.04
10060;BME280;5069;49.306;8.636;2023-07-13T14:18:25;100591.44;;;27.58;31.23
10060;BME280;5069;49.306;8.636;2023-07-13T14:21:28;100587.81;;;28.36;30.32
10060;BME280;5069;49.306;8.636;2023-07-13T14:24:30;100573.44;;;28.44;29.90
10060;BME280;5069;49.306;8.636;2023-07-13T14:27:32;100591.63;;;28.85;29.62
10060;BME280;5069;49.306;8.636;2023-07-13T14:30:33;100588.25;;;28.57;29.28
10060;BME280;5069;49.306;8.636;2023-07-13T14:33:35;100586.53;;;28.22;29.99
10060;BME280;5069;49.306;8.636;2023-07-13T14:36:39;100586.69;;;28.55;29.79
10060;BME280;5069;49.306;8.636;2023-07-13T14:39:44;100586.88;;;28.19;30.17
10060;BME280;5069;49.306;8.636;2023-07-13T14:42:46;100589.09;;;28.58;29.49
10060;BME280;5069;49.306;8.636;2023-07-13T14:45:50;100580.41;;;28.88;29.46
10060;BME280;5069;49.306;8.636;2023-07-13T14:48:58;100580.50;;;29.12;29.35
10060;BME280;5069;49.306;8.636;2023-07-13T14:52:05;100582.91;;;28.40;29.70
10060;BME280;5069;49.306;8.636;2023-07-13T14:55:17;100591.72;;;27.90;30.24
10060;BME280;5069;49.306;8.636;2023-07-13T14:58:19;100594.47;;;27.72;30.94
10060;BME280;5069;49.306;8.636;2023-07-13T15:01:21;100583.91;;;27.69;31.97
10060;BME280;5069;49.306;8.636;2023-07-13T15:04:23;100584.00;;;27.77;32.11
10060;BME280;5069;49.306;8.636;2023-07-13T15:07:25;100582.38;;;28.10;31.75
10060;BME280;5069;49.306;8.636;2023-07-13T15:10:30;100583.06;;;27.69;32.58
10060;BME280;5069;49.306;8.636;2023-07-13T15:13:32;100579.94;;;27.56;31.96
10060;BME280;5069;49.306;8.636;2023-07-13T15:16:35;100578.09;;;27.82;32.13
10060;BME280;5069;49.306;8.636;2023-07-13T15:19:36;100581.47;;;28.19;30.92
10060;BME280;5069;49.306;8.636;2023-07-13T15:22:38;100582.84;;;28.06;32.08
10060;BME280;5069;49.306;8.636;2023-07-13T15:25:41;100580.91;;;28.42;31.10
10060;BME280;5069;49.306;8.636;2023-07-13T15:28:43;100580.03;;;28.41;30.92
10060;BME280;5069;49.306;8.636;2023-07-13T15:31:45;100583.84;;;28.56;30.25
10060;BME280;5069;49.306;8.636;2023-07-13T15:34:47;100582.56;;;28.43;30.77
10060;BME280;5069;49.306;8.636;2023-07-13T15:37:49;100572.56;;;28.43;29.93
10060;BME280;5069;49.306;8.636;2023-07-13T15:40:52;100573.69;;;27.81;30.86
10060;BME280;5069;49.306;8.636;2023-07-13T15:43:57;100575.34;;;28.17;30.12
10060;BME280;5069;49.306;8.636;2023-07-13T15:47:00;100572.38;;;28.36;29.84
10060;BME280;5069;49.306;8.636;2023-07-13T15:50:02;100571.69;;;28.34;29.75
10060;BME280;5069;49.306;8.636;2023-07-13T15:53:04;100569.78;;;28.01;30.60
10060;BME280;5069;49.306;8.636;2023-07-13T15:56:23;100566.50;;;28.15;30.87
10060;BME280;5069;49.306;8.636;2023-07-13T15:59:25;100563.34;;;28.28;30.86
10060;BME280;5069;49.306;8.636;2023-07-13T16:02:26;100561.28;;;28.56;30.38
10060;BME280;5069;49.306;8.636;2023-07-13T16:05:28;100563.50;;;28.60;30.77
10060;BME280;5069;49.306;8.636;2023-07-13T16:08:32;100566.41;;;28.59;30.16
10060;BME280;5069;49.306;8.636;2023-07-13T16:11:36;100564.03;;;28.04;30.93
10060;BME280;5069;49.306;8.636;2023-07-13T16:14:40;100562.84;;;27.81;31.26
10060;BME280;5069;49.306;8.636;2023-07-13T16:17:45;100560.00;;;27.82;31.28
10060;BME280;5069;49.306;8.636;2023-07-13T16:20:48;100560.41;;;28.13;30.82
10060;BME280;5069;49.306;8.636;2023-07-13T16:23:52;100550.13;;;28.25;30.15
10060;BME280;5069;49.306;8.636;2023-07-13T16:27:08;100565.34;;;28.52;30.14
10060;BME280;5069;49.306;8.636;2023-07-13T16:30:16;100552.22;;;28.39;30.11
10060;BME280;5069;49.306;8.636;2023-07-13T16:33:19;100571.06;;;28.49;30.09
10060;BME280;5069;49.306;8.636;2023-07-13T16:36:23;100570.91;;;27.90;30.73
10060;BME280;5069;49.306;8.636;2023-07-13T16:39:27;100557.50;;;28.15;30.43
10060;BME280;5069;49.306;8.636;2023-07-13T16:42:28;100561.63;;;27.75;30.92
10060;BME280;5069;49.306;8.636;2023-07-13T16:45:31;100573.81;;;27.53;31.65
10060;BME280;5069;49.306;8.636;2023-07-13T16:48:37;100572.84;;;27.63;31.43